createdAt,value
2016-09-24T00:00:04.065Z,73.93
2016-09-24T00:01:03.870Z,73.86
2016-09-24T00:01:30.360Z,74.09
2016-09-24T00:02:01.617Z,74.22
2016-09-24T00:02:28.107Z,74.82
2016-09-24T00:03:26.014Z,74.12
2016-09-24T00:03:48.798Z,73.67
2016-09-24T00:04:13.518Z,73.68
2016-09-24T00:04:40.008Z,73.91
2016-09-24T00:05:06.504Z,74.08
2016-09-24T00:05:33.012Z,74.38
2016-09-24T00:05:54.719Z,74.66
2016-09-24T00:06:17.454Z,74.46
2016-09-24T00:06:47.983Z,73.67
2016-09-24T00:07:09.768Z,73.33
2016-09-24T00:07:31.544Z,73.26
2016-09-24T00:07:53.272Z,73.43
2016-09-24T00:08:14.996Z,73.56
2016-09-24T00:08:36.708Z,73.46
2016-09-24T00:09:01.262Z,73.48
2016-09-24T00:09:57.577Z,73.90
2016-09-24T00:10:19.413Z,73.91
2016-09-24T00:10:41.186Z,73.71
2016-09-24T00:11:02.936Z,73.37
2016-09-24T00:11:24.722Z,73.32
2016-09-24T00:11:47.450Z,72.98
2016-09-24T00:12:43.301Z,73.16
2016-09-24T00:13:12.331Z,73.66
2016-09-24T00:13:43.592Z,74.18
2016-09-24T00:14:12.632Z,74.37
2016-09-24T00:14:39.164Z,74.30
2016-09-24T00:15:03.593Z,74.29
2016-09-24T00:15:36.888Z,74.49
2016-09-24T00:15:58.681Z,74.23
2016-09-24T00:16:22.469Z,74.03
2016-09-24T00:16:44.213Z,74.23
2016-09-24T00:17:05.960Z,74.64
2016-09-24T00:17:32.457Z,74.79
2016-09-24T00:17:58.958Z,74.85
2016-09-24T00:18:20.712Z,74.63
2016-09-24T00:18:47.212Z,74.39
2016-09-24T00:19:09.045Z,74.52
2016-09-24T00:19:30.805Z,74.81
2016-09-24T00:19:52.582Z,75.31
2016-09-24T00:20:14.310Z,75.81
2016-09-24T00:21:05.416Z,75.76
2016-09-24T00:21:27.167Z,75.82
2016-09-24T00:21:48.907Z,75.66
2016-09-24T00:22:40.593Z,74.33
2016-09-24T00:23:07.138Z,73.96
2016-09-24T00:23:33.676Z,73.64
2016-09-24T00:23:58.127Z,73.25
2016-09-24T00:24:27.515Z,73.22
2016-09-24T00:24:49.334Z,73.20
2016-09-24T00:25:15.861Z,73.79
2016-09-24T00:25:37.606Z,73.75
2016-09-24T00:25:59.337Z,73.60
2016-09-24T00:26:21.151Z,73.89
2016-09-24T00:26:42.998Z,74.11
2016-09-24T00:27:32.307Z,73.86
2016-09-24T00:27:54.104Z,73.80
2016-09-24T00:28:17.855Z,74.61
2016-09-24T00:28:39.590Z,75.26
2016-09-24T00:30:18.982Z,75.56
2016-09-24T00:30:41.840Z,75.57
2016-09-24T00:31:30.066Z,75.92
2016-09-24T00:31:51.810Z,76.29
2016-09-24T00:32:13.532Z,76.75
2016-09-24T00:33:09.280Z,77.24
2016-09-24T00:33:31.039Z,77.02
2016-09-24T00:33:52.870Z,77.11
2016-09-24T00:34:14.649Z,76.94
2016-09-24T00:35:05.439Z,76.94
2016-09-24T00:36:32.544Z,77.08
2016-09-24T00:37:00.079Z,76.15
2016-09-24T00:37:24.736Z,75.35
2016-09-24T00:37:46.525Z,74.94
2016-09-24T00:38:57.442Z,74.72
2016-09-24T00:39:19.213Z,75.48
2016-09-24T00:40:38.604Z,77.26
2016-09-24T00:41:05.110Z,77.27
2016-09-24T00:41:32.623Z,77.26
2016-09-24T00:41:54.410Z,77.27
2016-09-24T00:42:17.183Z,77.15
2016-09-24T00:42:39.948Z,76.89
2016-09-24T00:43:06.457Z,76.82
2016-09-24T00:43:28.221Z,76.55
2016-09-24T00:43:51.946Z,76.16
2016-09-24T00:44:15.740Z,76.06
2016-09-24T00:44:38.572Z,76.32
2016-09-24T00:45:00.352Z,76.08
2016-09-24T00:45:27.875Z,76.22
2016-09-24T00:45:49.648Z,76.70
2016-09-24T00:46:14.059Z,76.95
2016-09-24T00:46:35.799Z,76.96
2016-09-24T00:47:00.189Z,76.24
2016-09-24T00:47:26.676Z,76.14
2016-09-24T00:47:49.484Z,76.14
2016-09-24T00:48:15.997Z,76.33
2016-09-24T00:48:37.851Z,76.83
2016-09-24T00:48:59.606Z,77.08
2016-09-24T00:49:21.404Z,77.03
2016-09-24T00:49:47.914Z,77.20
2016-09-24T00:50:52.462Z,76.41
2016-09-24T00:51:18.960Z,76.57
2016-09-24T00:51:40.687Z,76.81
2016-09-24T00:52:02.421Z,77.10
2016-09-24T00:52:28.913Z,76.67
2016-09-24T00:53:00.180Z,76.41
2016-09-24T00:53:26.990Z,76.56
2016-09-24T00:54:00.917Z,76.24
2016-09-24T00:54:22.737Z,75.36
2016-09-24T00:55:15.861Z,74.82
2016-09-24T00:56:14.648Z,75.26
2016-09-24T00:56:36.449Z,75.17
2016-09-24T00:56:58.232Z,75.07
2016-09-24T00:57:20.036Z,74.64
2016-09-24T00:57:41.845Z,74.65
2016-09-24T00:58:03.650Z,74.72
2016-09-24T00:58:28.160Z,74.76
2016-09-24T00:58:49.953Z,74.63
2016-09-24T00:59:11.724Z,74.37
2016-09-24T00:59:33.496Z,74.94
2016-09-24T01:00:29.333Z,76.12
2016-09-24T01:00:53.685Z,76.50
2016-09-24T01:01:15.449Z,76.53
2016-09-24T01:01:38.181Z,76.61
2016-09-24T01:02:07.246Z,76.45
2016-09-24T01:02:33.756Z,76.18
2016-09-24T01:03:32.578Z,75.96
2016-09-24T01:03:59.086Z,76.30
2016-09-24T01:04:25.580Z,76.34
2016-09-24T01:04:48.329Z,76.84
2016-09-24T01:05:17.277Z,77.36
2016-09-24T01:06:10.348Z,77.13
2016-09-24T01:06:33.116Z,77.14
2016-09-24T01:07:28.265Z,77.14
2016-09-24T01:07:54.793Z,76.28
2016-09-24T01:08:16.553Z,75.62
2016-09-24T01:08:39.312Z,75.36
2016-09-24T01:09:10.589Z,75.43
2016-09-24T01:09:33.311Z,76.01
2016-09-24T01:09:59.797Z,76.69
2016-09-24T01:10:21.559Z,76.96
2016-09-24T01:11:50.582Z,77.22
2016-09-24T01:12:12.308Z,77.41
2016-09-24T01:12:36.769Z,77.46
2016-09-24T01:13:36.499Z,77.36
2016-09-24T01:13:58.240Z,77.34
2016-09-24T01:14:24.813Z,77.83
2016-09-24T01:14:46.538Z,77.97
2016-09-24T01:15:39.532Z,77.13
2016-09-24T01:16:07.032Z,77.21
2016-09-24T01:16:33.545Z,76.70
2016-09-24T01:16:55.343Z,76.36
2016-09-24T01:17:17.092Z,76.53
2016-09-24T01:17:39.808Z,76.42
2016-09-24T01:18:11.090Z,76.20
2016-09-24T01:18:33.811Z,75.99
2016-09-24T01:18:55.671Z,76.18
2016-09-24T01:19:18.414Z,75.98
2016-09-24T01:19:44.724Z,75.29
2016-09-24T01:20:35.072Z,75.43
2016-09-24T01:20:56.885Z,75.15
2016-09-24T01:21:18.632Z,75.23
2016-09-24T01:21:40.372Z,75.30
2016-09-24T01:22:04.679Z,75.63
2016-09-24T01:22:29.032Z,75.47
2016-09-24T01:22:50.769Z,75.98
2016-09-24T01:23:15.153Z,76.73
2016-09-24T01:24:10.129Z,78.33
2016-09-24T01:24:31.921Z,78.75
2016-09-24T01:24:58.475Z,79.12
2016-09-24T01:25:27.646Z,78.91
2016-09-24T01:25:50.439Z,78.79
2016-09-24T01:26:16.958Z,78.45
2016-09-24T01:26:43.445Z,77.59
2016-09-24T01:27:06.172Z,76.85
2016-09-24T01:27:27.931Z,76.25
2016-09-24T01:27:52.443Z,75.94
2016-09-24T01:28:21.836Z,75.70
2016-09-24T01:29:17.221Z,75.79
2016-09-24T01:29:49.483Z,76.51
2016-09-24T01:30:15.983Z,76.76
2016-09-24T01:30:47.266Z,77.01
2016-09-24T01:31:16.744Z,77.29
2016-09-24T01:31:49.009Z,76.85
2016-09-24T01:32:19.794Z,76.13
2016-09-24T01:32:46.296Z,76.91
2016-09-24T01:33:13.800Z,77.31
2016-09-24T01:33:38.363Z,77.04
2016-09-24T01:34:00.089Z,76.80
2016-09-24T01:34:26.588Z,76.51
2016-09-24T01:35:17.814Z,76.54
2016-09-24T01:35:40.541Z,76.98
2016-09-24T01:36:04.259Z,77.46
2016-09-24T01:37:19.766Z,77.90
2016-09-24T01:37:43.488Z,78.02
2016-09-24T01:38:08.201Z,78.58
2016-09-24T01:39:02.915Z,79.01
2016-09-24T01:39:24.639Z,78.82
2016-09-24T01:39:46.441Z,78.77
2016-09-24T01:40:08.204Z,78.64
2016-09-24T01:40:29.942Z,78.35
2016-09-24T01:40:52.681Z,78.12
2016-09-24T01:41:14.438Z,77.67
2016-09-24T01:41:40.991Z,77.63
2016-09-24T01:42:07.305Z,77.06
2016-09-24T01:42:29.059Z,76.55
2016-09-24T01:42:51.814Z,76.16
2016-09-24T01:43:17.437Z,76.06
2016-09-24T01:43:40.160Z,76.48
2016-09-24T01:44:40.947Z,76.96
2016-09-24T01:45:33.952Z,76.64
2016-09-24T01:46:37.590Z,76.87
2016-09-24T01:47:35.347Z,77.60
2016-09-24T01:48:03.658Z,78.17
2016-09-24T01:48:30.963Z,78.72
2016-09-24T01:48:52.695Z,78.80
2016-09-24T01:49:14.416Z,78.30
2016-09-24T01:49:40.036Z,77.34
2016-09-24T01:50:01.793Z,77.47
2016-09-24T01:50:26.148Z,77.67
2016-09-24T01:50:47.875Z,77.66
2016-09-24T01:51:09.616Z,77.50
2016-09-24T01:51:31.437Z,77.41
2016-09-24T01:51:57.931Z,77.47
2016-09-24T01:52:20.702Z,77.99
2016-09-24T01:52:42.413Z,77.52
2016-09-24T01:53:34.481Z,77.11
2016-09-24T01:53:56.273Z,76.99
2016-09-24T01:54:18.027Z,76.69
2016-09-24T01:54:40.912Z,76.65
2016-09-24T01:55:02.762Z,76.97
2016-09-24T01:55:24.526Z,77.11
2016-09-24T01:55:51.037Z,77.18
2016-09-24T01:56:12.778Z,77.83
2016-09-24T01:56:34.574Z,78.11
2016-09-24T01:56:56.324Z,78.09
2016-09-24T01:57:18.032Z,78.47
2016-09-24T01:57:39.754Z,78.79
2016-09-24T01:58:06.289Z,78.83
2016-09-24T01:58:37.393Z,78.73
2016-09-24T01:59:00.139Z,78.81
2016-09-24T01:59:22.936Z,78.89
2016-09-24T01:59:45.671Z,78.74
2016-09-24T02:00:07.390Z,78.73
2016-09-24T02:00:30.116Z,78.67
2016-09-24T02:00:51.838Z,78.68
2016-09-24T02:01:13.611Z,78.34
2016-09-24T02:01:36.379Z,77.93
2016-09-24T02:02:02.872Z,77.59
2016-09-24T02:02:55.921Z,78.82
2016-09-24T02:03:22.433Z,79.33
2016-09-24T02:03:48.991Z,79.25
2016-09-24T02:04:10.771Z,79.05
2016-09-24T02:04:37.326Z,79.09
2016-09-24T02:04:59.073Z,78.97
2016-09-24T02:05:20.859Z,79.08
2016-09-24T02:05:42.632Z,79.03
2016-09-24T02:06:14.958Z,79.14
2016-09-24T02:06:48.225Z,79.51
2016-09-24T02:07:10.955Z,79.65
2016-09-24T02:07:37.842Z,79.62
2016-09-24T02:07:59.589Z,80.03
2016-09-24T02:08:58.900Z,80.07
2016-09-24T02:09:34.933Z,79.78
2016-09-24T02:09:59.595Z,79.60
2016-09-24T02:10:21.373Z,79.52
2016-09-24T02:10:52.440Z,79.51
2016-09-24T02:11:16.187Z,78.87
2016-09-24T02:12:13.979Z,78.57
2016-09-24T02:13:11.759Z,78.93
2016-09-24T02:13:33.480Z,79.01
2016-09-24T02:13:56.213Z,79.02
2016-09-24T02:14:22.712Z,78.53
2016-09-24T02:14:49.212Z,78.09
2016-09-24T02:15:10.962Z,77.78
2016-09-24T02:15:33.733Z,77.38
2016-09-24T02:15:55.474Z,77.22
2016-09-24T02:16:17.205Z,77.21
2016-09-24T02:16:40.937Z,77.27
2016-09-24T02:17:02.709Z,78.02
2016-09-24T02:17:27.353Z,78.43
2016-09-24T02:17:49.084Z,79.02
2016-09-24T02:18:11.797Z,79.11
2016-09-24T02:18:38.287Z,79.73
2016-09-24T02:19:04.789Z,79.94
2016-09-24T02:19:26.505Z,79.99
2016-09-24T02:19:49.223Z,80.10
2016-09-24T02:20:10.959Z,80.42
2016-09-24T02:20:37.493Z,80.26
2016-09-24T02:21:04.003Z,80.63
2016-09-24T02:21:57.989Z,80.40
2016-09-24T02:22:20.713Z,80.62
2016-09-24T02:22:42.444Z,80.37
2016-09-24T02:23:04.152Z,79.55
2016-09-24T02:23:25.870Z,78.84
2016-09-24T02:23:57.135Z,78.01
2016-09-24T02:24:18.914Z,77.85
2016-09-24T02:24:40.645Z,77.81
2016-09-24T02:25:03.375Z,77.94
2016-09-24T02:26:34.962Z,78.49
2016-09-24T02:26:56.689Z,78.93
2016-09-24T02:27:24.168Z,79.27
2016-09-24T02:27:45.922Z,79.37
2016-09-24T02:28:13.411Z,78.99
2016-09-24T02:29:05.208Z,79.06
2016-09-24T02:29:26.923Z,79.33
2016-09-24T02:29:48.656Z,78.91
2016-09-24T02:30:10.418Z,79.14
2016-09-24T02:30:36.929Z,79.44
2016-09-24T02:30:58.723Z,79.60
2016-09-24T02:31:29.990Z,79.92
2016-09-24T02:31:57.014Z,80.17
2016-09-24T02:32:22.299Z,80.39
2016-09-24T02:32:48.805Z,80.68
2016-09-24T02:33:46.412Z,80.59
2016-09-24T02:34:13.912Z,80.37
2016-09-24T02:34:38.620Z,80.42
2016-09-24T02:35:00.376Z,79.87
2016-09-24T02:35:22.179Z,79.60
2016-09-24T02:35:47.615Z,79.06
2016-09-24T02:36:10.349Z,78.42
2016-09-24T02:36:33.084Z,78.10
2016-09-24T02:36:54.811Z,77.99
2016-09-24T02:37:17.619Z,77.58
2016-09-24T02:37:39.429Z,77.29
2016-09-24T02:38:01.157Z,77.12
2016-09-24T02:38:27.662Z,77.35
2016-09-24T02:39:21.554Z,77.19
2016-09-24T02:39:49.044Z,77.71
2016-09-24T02:40:15.528Z,78.50
2016-09-24T02:40:43.016Z,78.76
2016-09-24T02:41:04.748Z,79.47
2016-09-24T02:41:40.588Z,80.48
2016-09-24T02:42:05.294Z,80.71
2016-09-24T02:42:28.014Z,80.84
2016-09-24T02:42:49.781Z,80.99
2016-09-24T02:43:11.515Z,80.97
2016-09-24T02:43:38.007Z,81.12
2016-09-24T02:43:59.749Z,80.95
2016-09-24T02:44:21.550Z,80.93
2016-09-24T02:44:43.387Z,80.88
2016-09-24T02:45:05.182Z,80.73
2016-09-24T02:45:27.019Z,80.69
2016-09-24T02:45:49.771Z,80.49
2016-09-24T02:46:12.507Z,80.31
2016-09-24T02:46:37.252Z,80.31
2016-09-24T02:47:00.996Z,80.07
2016-09-24T02:47:22.767Z,79.85
2016-09-24T02:47:44.481Z,79.70
2016-09-24T02:48:35.434Z,78.67
2016-09-24T02:48:57.246Z,78.32
2016-09-24T02:49:18.981Z,78.07
2016-09-24T02:49:45.928Z,77.94
2016-09-24T02:50:15.246Z,77.61
2016-09-24T02:50:36.981Z,77.44
2016-09-24T02:50:58.802Z,77.19
2016-09-24T02:51:20.526Z,77.32
2016-09-24T02:51:42.248Z,77.15
2016-09-24T02:52:40.299Z,77.94
2016-09-24T02:53:02.063Z,78.68
2016-09-24T02:53:24.837Z,79.62
2016-09-24T02:53:50.289Z,80.05
2016-09-24T02:54:12.043Z,80.28
2016-09-24T02:55:00.283Z,80.93
2016-09-24T02:55:24.638Z,80.74
2016-09-24T02:55:51.121Z,80.56
2016-09-24T02:56:12.888Z,80.71
2016-09-24T02:56:35.643Z,80.62
2016-09-24T02:56:57.384Z,80.32
2016-09-24T02:57:19.137Z,80.23
2016-09-24T02:57:40.949Z,80.22
2016-09-24T02:58:03.768Z,79.89
2016-09-24T02:58:25.559Z,80.00
2016-09-24T02:58:50.072Z,79.47
2016-09-24T02:59:11.937Z,78.90
2016-09-24T02:59:34.744Z,78.77
2016-09-24T02:59:56.504Z,78.22
2016-09-24T03:00:22.991Z,78.16
2016-09-24T03:01:22.089Z,79.04
2016-09-24T03:01:48.591Z,79.56
2016-09-24T03:02:10.392Z,79.52
2016-09-24T03:02:44.459Z,79.45
2016-09-24T03:03:06.238Z,79.52
2016-09-24T03:03:32.719Z,79.62
2016-09-24T03:03:54.521Z,79.40
2016-09-24T03:04:22.011Z,79.38
2016-09-24T03:04:52.021Z,79.62
2016-09-24T03:05:24.306Z,79.54
2016-09-24T03:07:49.545Z,79.51
2016-09-24T03:08:21.307Z,79.21
2016-09-24T03:08:47.807Z,78.96
2016-09-24T03:09:19.074Z,78.43
2016-09-24T03:10:23.931Z,77.83
2016-09-24T03:10:48.212Z,77.54
2016-09-24T03:11:14.722Z,78.08
2016-09-24T03:12:13.282Z,78.86
2016-09-24T03:12:35.004Z,79.04
2016-09-24T03:12:57.750Z,79.11
2016-09-24T03:13:53.180Z,79.90
2016-09-24T03:14:14.990Z,79.73
2016-09-24T03:14:36.713Z,79.88
2016-09-24T03:15:01.228Z,79.69
2016-09-24T03:15:22.943Z,79.73
2016-09-24T03:15:44.759Z,80.29
2016-09-24T03:16:11.276Z,80.54
2016-09-24T03:16:37.750Z,80.44
2016-09-24T03:16:59.548Z,79.85
2016-09-24T03:17:21.314Z,79.93
2016-09-24T03:17:43.029Z,79.47
2016-09-24T03:18:04.754Z,78.75
2016-09-24T03:18:27.499Z,78.66
2016-09-24T03:18:50.364Z,78.29
2016-09-24T03:19:14.875Z,78.26
2016-09-24T03:19:36.613Z,78.46
2016-09-24T03:20:03.327Z,78.55
2016-09-24T03:20:25.059Z,78.87
2016-09-24T03:20:46.867Z,79.19
2016-09-24T03:21:08.626Z,79.32
2016-09-24T03:21:35.176Z,78.93
2016-09-24T03:21:57.058Z,78.68
2016-09-24T03:22:18.838Z,78.50
2016-09-24T03:22:40.601Z,78.69
2016-09-24T03:23:07.144Z,79.42
2016-09-24T03:23:34.699Z,80.03
2016-09-24T03:23:57.477Z,79.99
2016-09-24T03:24:24.057Z,80.21
2016-09-24T03:25:17.939Z,80.88
2016-09-24T03:25:39.660Z,80.92
2016-09-24T03:26:04.109Z,80.77
2016-09-24T03:27:09.218Z,79.55
2016-09-24T03:27:31.951Z,79.42
2016-09-24T03:27:58.438Z,79.23
2016-09-24T03:28:20.252Z,78.88
2016-09-24T03:28:42.006Z,78.56
2016-09-24T03:29:03.779Z,78.02
2016-09-24T03:29:25.581Z,77.95
2016-09-24T03:30:14.831Z,78.69
2016-09-24T03:30:43.317Z,79.35
2016-09-24T03:31:14.582Z,79.07
2016-09-24T03:32:13.245Z,78.03
2016-09-24T03:32:34.997Z,77.92
2016-09-24T03:33:06.252Z,77.77
2016-09-24T03:34:04.204Z,77.58
2016-09-24T03:34:30.691Z,77.49
2016-09-24T03:35:19.031Z,77.91
2016-09-24T03:35:43.846Z,78.09
2016-09-24T03:36:05.571Z,78.06
2016-09-24T03:36:28.431Z,78.03
2016-09-24T03:37:00.406Z,78.43
2016-09-24T03:37:26.944Z,78.39
2016-09-24T03:37:48.717Z,78.04
2016-09-24T03:38:15.222Z,78.60
2016-09-24T03:38:37.005Z,79.12
2016-09-24T03:39:30.063Z,79.05
2016-09-24T03:39:52.821Z,78.99
2016-09-24T03:40:19.324Z,79.07
2016-09-24T03:40:44.044Z,79.29
2016-09-24T03:41:32.275Z,79.57
2016-09-24T03:41:54.012Z,79.87
2016-09-24T03:42:15.773Z,80.19
2016-09-24T03:42:38.509Z,80.43
2016-09-24T03:43:00.310Z,80.27
2016-09-24T03:43:26.822Z,79.74
2016-09-24T03:43:48.569Z,79.67
2016-09-24T03:44:11.318Z,79.26
2016-09-24T03:44:37.832Z,78.91
2016-09-24T03:44:59.907Z,78.39
2016-09-24T03:45:21.641Z,78.32
2016-09-24T03:45:43.363Z,78.70
2016-09-24T03:46:06.119Z,79.10
2016-09-24T03:46:28.898Z,79.55
2016-09-24T03:46:54.355Z,79.98
2016-09-24T03:47:16.099Z,80.23
2016-09-24T03:47:42.611Z,80.48
2016-09-24T03:48:06.396Z,80.51
2016-09-24T03:48:28.163Z,80.57
2016-09-24T03:48:49.945Z,80.77
2016-09-24T03:49:38.342Z,80.95
2016-09-24T03:50:01.145Z,80.97
2016-09-24T03:50:22.905Z,80.74
2016-09-24T03:50:45.673Z,80.64
2016-09-24T03:51:07.434Z,80.74
2016-09-24T03:51:33.971Z,80.75
2016-09-24T03:51:56.744Z,80.76
2016-09-24T03:52:18.518Z,80.79
2016-09-24T03:52:42.893Z,80.92
2016-09-24T03:54:25.021Z,79.30
2016-09-24T03:54:51.513Z,79.23
2016-09-24T03:55:22.610Z,79.96
2016-09-24T03:55:51.731Z,79.99
2016-09-24T03:56:55.798Z,79.28
2016-09-24T03:58:01.971Z,79.12
2016-09-24T03:58:23.734Z,79.79
2016-09-24T03:58:45.497Z,80.29
2016-09-24T03:59:07.244Z,80.94
2016-09-24T03:59:28.979Z,81.26
2016-09-24T03:59:58.406Z,81.41
2016-09-24T04:00:28.800Z,81.62
2016-09-24T04:00:56.287Z,81.03
2016-09-24T04:01:22.835Z,80.36
2016-09-24T04:01:56.896Z,79.93
2016-09-24T04:02:32.547Z,78.96
2016-09-24T04:04:25.922Z,79.52
2016-09-24T04:04:47.654Z,80.25
2016-09-24T04:05:09.360Z,80.83
2016-09-24T04:05:31.085Z,80.62
2016-09-24T04:05:53.011Z,80.08
2016-09-24T04:06:14.764Z,79.86
2016-09-24T04:06:42.269Z,79.60
2016-09-24T04:07:08.787Z,79.28
2016-09-24T04:07:59.090Z,79.18
2016-09-24T04:08:35.123Z,79.01
2016-09-24T04:09:01.680Z,79.11
2016-09-24T04:09:28.168Z,79.22
2016-09-24T04:09:49.971Z,79.17
2016-09-24T04:10:11.705Z,78.67
2016-09-24T04:10:33.462Z,78.54
2016-09-24T04:10:55.207Z,78.44
2016-09-24T04:11:17.968Z,78.40
2016-09-24T04:11:45.462Z,78.42
2016-09-24T04:12:13.007Z,79.13
2016-09-24T04:12:39.507Z,79.77
2016-09-24T04:13:06.006Z,79.99
2016-09-24T04:13:27.779Z,80.26
2016-09-24T04:13:49.606Z,80.64
2016-09-24T04:14:11.398Z,80.49
2016-09-24T04:14:36.896Z,80.56
2016-09-24T04:15:00.754Z,80.18
2016-09-24T04:15:27.330Z,79.69
2016-09-24T04:15:49.097Z,79.68
2016-09-24T04:16:15.589Z,79.86
2016-09-24T04:16:45.198Z,79.24
2016-09-24T04:17:06.992Z,79.07
2016-09-24T04:17:36.351Z,78.94
2016-09-24T04:18:30.326Z,78.82
2016-09-24T04:18:56.819Z,78.89
2016-09-24T04:19:23.138Z,78.68
2016-09-24T04:19:44.934Z,78.40
2016-09-24T04:20:06.684Z,78.28
2016-09-24T04:20:28.483Z,78.34
2016-09-24T04:21:25.309Z,79.51
2016-09-24T04:21:49.797Z,80.03
2016-09-24T04:22:11.555Z,80.28
2016-09-24T04:22:34.285Z,80.33
2016-09-24T04:22:56.085Z,80.70
2016-09-24T04:23:21.625Z,80.85
2016-09-24T04:23:43.362Z,80.98
2016-09-24T04:24:32.610Z,81.41
2016-09-24T04:24:59.157Z,81.81
2016-09-24T04:25:20.873Z,81.87
2016-09-24T04:25:44.674Z,81.41
2016-09-24T04:26:07.509Z,81.13
2016-09-24T04:26:29.302Z,81.25
2016-09-24T04:26:55.807Z,81.41
2016-09-24T04:27:17.551Z,81.49
2016-09-24T04:27:45.080Z,81.16
2016-09-24T04:28:41.064Z,81.07
2016-09-24T04:30:48.616Z,80.07
2016-09-24T04:31:10.389Z,80.04
2016-09-24T04:31:32.137Z,79.93
2016-09-24T04:31:53.909Z,79.77
2016-09-24T04:32:15.720Z,79.33
2016-09-24T04:32:42.226Z,79.10
2016-09-24T04:33:04.013Z,78.84
2016-09-24T04:33:30.495Z,78.74
2016-09-24T04:34:29.263Z,78.65
2016-09-24T04:35:23.087Z,79.08
2016-09-24T04:35:52.386Z,79.06
2016-09-24T04:36:23.494Z,79.21
2016-09-24T04:36:59.349Z,79.23
2016-09-24T04:37:30.613Z,79.22
2016-09-24T04:38:53.496Z,79.54
2016-09-24T04:39:19.993Z,79.94
2016-09-24T04:39:41.714Z,80.46
2016-09-24T04:40:04.457Z,80.58
2016-09-24T04:40:35.730Z,80.08
2016-09-24T04:41:36.354Z,80.59
2016-09-24T04:42:36.770Z,81.58
2016-09-24T04:42:58.546Z,81.86
2016-09-24T04:43:21.279Z,82.03
2016-09-24T04:43:45.582Z,81.91
2016-09-24T04:44:43.144Z,81.83
2016-09-24T04:45:10.645Z,81.50
2016-09-24T04:45:33.503Z,81.30
2016-09-24T04:46:00.341Z,80.78
2016-09-24T04:46:26.821Z,80.04
2016-09-24T04:47:25.574Z,80.37
2016-09-24T04:47:53.078Z,80.51
2016-09-24T04:49:16.392Z,80.23
2016-09-24T04:50:18.914Z,79.92
2016-09-24T04:50:53.009Z,80.53
2016-09-24T04:51:41.848Z,79.76
2016-09-24T04:52:08.341Z,79.69
2016-09-24T04:53:31.528Z,79.78
2016-09-24T04:53:53.262Z,80.45
2016-09-24T04:54:19.754Z,80.71
2016-09-24T04:55:22.046Z,81.96
2016-09-24T04:55:43.802Z,82.28
2016-09-24T04:56:05.601Z,82.42
2016-09-24T04:57:49.322Z,81.50
2016-09-24T04:58:13.630Z,81.12
2016-09-24T04:58:47.445Z,81.39
2016-09-24T04:59:14.439Z,81.38
2016-09-24T04:59:37.159Z,81.61
2016-09-24T05:00:35.429Z,80.96
2016-09-24T05:00:57.217Z,80.88
2016-09-24T05:01:19.953Z,80.26
2016-09-24T05:02:18.606Z,80.93
2016-09-24T05:02:40.332Z,80.82
2016-09-24T05:03:30.543Z,80.56
2016-09-24T05:03:52.286Z,80.68
2016-09-24T05:04:15.010Z,81.00
2016-09-24T05:04:36.756Z,81.10
2016-09-24T05:05:04.244Z,81.61
2016-09-24T05:05:25.969Z,81.61
2016-09-24T05:05:48.771Z,81.77
2016-09-24T05:06:10.541Z,81.19
2016-09-24T05:06:32.381Z,80.94
2016-09-24T05:07:20.664Z,80.47
2016-09-24T05:07:47.146Z,80.25
2016-09-24T05:08:19.448Z,80.39
2016-09-24T05:09:09.669Z,79.96
2016-09-24T05:11:07.801Z,81.50
2016-09-24T05:11:34.302Z,81.58
2016-09-24T05:12:00.778Z,81.84
2016-09-24T05:12:23.508Z,81.58
2016-09-24T05:12:45.281Z,81.20
2016-09-24T05:13:07.005Z,81.14
2016-09-24T05:14:05.086Z,80.33
2016-09-24T05:14:27.805Z,80.19
2016-09-24T05:15:18.218Z,79.81
2016-09-24T05:15:44.733Z,79.81
2016-09-24T05:16:11.251Z,79.31
2016-09-24T05:16:33.021Z,79.73
2016-09-24T05:16:54.746Z,79.89
2016-09-24T05:17:23.817Z,80.11
2016-09-24T05:18:24.921Z,80.93
2016-09-24T05:19:19.725Z,82.01
2016-09-24T05:19:46.659Z,81.96
2016-09-24T05:20:08.380Z,82.37
2016-09-24T05:20:34.877Z,82.31
2016-09-24T05:20:56.622Z,82.58
2016-09-24T05:21:54.498Z,82.41
2016-09-24T05:22:23.959Z,81.90
2016-09-24T05:22:52.263Z,81.71
2016-09-24T05:24:21.785Z,82.18
2016-09-24T05:24:46.064Z,82.25
2016-09-24T05:25:15.133Z,81.92
2016-09-24T05:25:37.852Z,81.32
2016-09-24T05:26:08.319Z,81.30
2016-09-24T05:27:01.305Z,81.98
2016-09-24T05:27:23.032Z,82.11
2016-09-24T05:27:52.249Z,82.39
2016-09-24T05:28:19.746Z,82.24
2016-09-24T05:28:46.082Z,82.08
2016-09-24T05:29:19.673Z,82.19
2016-09-24T05:29:41.400Z,82.02
2016-09-24T05:30:07.890Z,82.28
2016-09-24T05:31:06.636Z,82.93
2016-09-24T05:31:55.854Z,83.17
2016-09-24T05:32:52.706Z,82.37
2016-09-24T05:33:19.215Z,82.01
2016-09-24T05:33:46.699Z,82.05
2016-09-24T05:34:08.441Z,82.45
2016-09-24T05:34:30.162Z,82.87
2016-09-24T05:34:51.900Z,83.29
2016-09-24T05:35:19.404Z,83.19
2016-09-24T05:35:46.962Z,83.47
2016-09-24T05:36:08.639Z,83.96
2016-09-24T05:36:30.389Z,84.09
2016-09-24T05:36:52.120Z,83.94
2016-09-24T05:37:13.868Z,83.69
2016-09-24T05:37:35.586Z,83.50
2016-09-24T05:38:23.836Z,82.90
2016-09-24T05:38:45.547Z,83.22
2016-09-24T05:39:08.312Z,82.87
2016-09-24T05:39:30.159Z,82.68
2016-09-24T05:39:51.889Z,82.59
2016-09-24T05:40:13.674Z,82.64
2016-09-24T05:40:35.400Z,82.91
2016-09-24T05:40:57.153Z,83.21
2016-09-24T05:41:18.978Z,83.13
2016-09-24T05:41:41.726Z,83.38
2016-09-24T05:42:03.463Z,83.72
2016-09-24T05:42:25.237Z,83.83
2016-09-24T05:42:51.733Z,83.87
2016-09-24T05:43:19.288Z,84.09
2016-09-24T05:44:38.814Z,84.31
2016-09-24T05:45:10.088Z,84.04
2016-09-24T05:45:41.364Z,83.81
2016-09-24T05:46:03.085Z,83.67
2016-09-24T05:46:24.821Z,83.65
2016-09-24T05:46:46.547Z,83.98
2016-09-24T05:47:08.289Z,83.97
2016-09-24T05:47:56.515Z,83.50
2016-09-24T05:49:30.324Z,83.19
2016-09-24T05:49:54.040Z,83.13
2016-09-24T05:50:15.761Z,82.96
2016-09-24T05:50:47.028Z,82.98
2016-09-24T05:51:14.529Z,82.99
2016-09-24T05:51:36.251Z,82.84
2016-09-24T05:51:57.985Z,82.96
2016-09-24T05:52:19.707Z,83.30
2016-09-24T05:52:47.194Z,83.53
2016-09-24T05:53:13.697Z,83.64
2016-09-24T05:53:39.303Z,83.66
2016-09-24T05:54:10.564Z,83.84
2016-09-24T05:56:01.876Z,82.85
2016-09-24T05:56:28.388Z,82.91
2016-09-24T05:56:54.884Z,83.01
2016-09-24T05:57:16.615Z,83.00
2016-09-24T05:57:38.337Z,83.22
2016-09-24T05:58:04.842Z,83.46
2016-09-24T05:58:27.568Z,83.59
2016-09-24T05:58:49.290Z,83.64
2016-09-24T05:59:11.009Z,83.38
2016-09-24T05:59:32.740Z,83.27
2016-09-24T05:59:54.476Z,83.20
2016-09-24T06:00:16.205Z,82.96
2016-09-24T06:00:37.930Z,82.28
2016-09-24T06:00:59.658Z,81.61
2016-09-24T06:01:21.376Z,81.13
2016-09-24T06:01:43.124Z,81.39
2016-09-24T06:02:04.842Z,81.62
2016-09-24T06:02:26.569Z,82.01
2016-09-24T06:02:48.323Z,82.02
2016-09-24T06:03:10.045Z,82.31
2016-09-24T06:03:32.771Z,82.53
2016-09-24T06:03:54.512Z,82.61
2016-09-24T06:04:16.240Z,82.72
2016-09-24T06:04:38.034Z,82.68
2016-09-24T06:04:59.760Z,82.50
2016-09-24T06:05:58.026Z,82.77
2016-09-24T06:06:19.767Z,82.61
2016-09-24T06:06:41.516Z,82.83
2016-09-24T06:07:03.247Z,82.93
2016-09-24T06:07:24.976Z,83.11
2016-09-24T06:07:46.746Z,83.00
2016-09-24T06:08:08.483Z,83.04
2016-09-24T06:08:30.213Z,82.50
2016-09-24T06:08:51.973Z,81.92
2016-09-24T06:09:13.696Z,81.46
2016-09-24T06:09:35.420Z,81.27
2016-09-24T06:09:57.273Z,80.89
2016-09-24T06:10:18.985Z,80.83
2016-09-24T06:10:40.710Z,80.60
2016-09-24T06:11:02.452Z,80.66
2016-09-24T06:11:24.188Z,80.63
2016-09-24T06:11:45.912Z,80.66
2016-09-24T06:12:07.637Z,80.62
2016-09-24T06:12:29.372Z,80.30
2016-09-24T06:12:51.113Z,80.83
2016-09-24T06:13:12.831Z,80.89
2016-09-24T06:13:34.559Z,80.88
2016-09-24T06:13:56.290Z,80.65
2016-09-24T06:14:18.018Z,80.68
2016-09-24T06:14:44.521Z,81.06
2016-09-24T06:15:06.248Z,81.44
2016-09-24T06:15:27.993Z,81.71
2016-09-24T06:15:49.740Z,82.17
2016-09-24T06:16:11.484Z,82.48
2016-09-24T06:16:33.193Z,82.51
2016-09-24T06:16:54.917Z,82.65
2016-09-24T06:17:16.670Z,82.83
2016-09-24T06:17:38.386Z,82.67
2016-09-24T06:18:00.172Z,82.89
2016-09-24T06:18:21.886Z,82.83
2016-09-24T06:18:43.630Z,82.86
2016-09-24T06:19:05.360Z,82.83
2016-09-24T06:19:27.109Z,82.87